sensor_id;sensor_type;location;lat;lon;timestamp;pressure;altitude;pressure_sealevel;temperature;humidity
61870;BME280;47810;42.264;23.826;2024-01-30T00:01:03;95601.59;;;-2.06;73.73
61870;BME280;47810;42.264;23.826;2024-01-30T00:03:39;95595.53;;;-2.08;73.99
61870;BME280;47810;42.264;23.826;2024-01-30T00:06:21;95599.94;;;-2.01;73.83
61870;BME280;47810;42.264;23.826;2024-01-30T00:09:11;95604.94;;;-2.17;74.57
61870;BME280;47810;42.264;23.826;2024-01-30T00:18:24;95606.69;;;-2.13;73.88
61870;BME280;47810;42.264;23.826;2024-01-30T00:24:13;95599.81;;;-2.11;73.41
61870;BME280;47810;42.264;23.826;2024-01-30T00:26:50;95596.44;;;-2.03;72.48
61870;BME280;47810;42.264;23.826;2024-01-30T00:29:15;95592.88;;;-2.15;73.32
61870;BME280;47810;42.264;23.826;2024-01-30T00:31:46;95596.34;;;-2.13;73.04
61870;BME280;47810;42.264;23.826;2024-01-30T00:37:16;95603.16;;;-2.21;73.54
61870;BME280;47810;42.264;23.826;2024-01-30T00:39:52;95598.00;;;-2.21;73.42
61870;BME280;47810;42.264;23.826;2024-01-30T00:42:27;95601.44;;;-2.19;73.47
61870;BME280;47810;42.264;23.826;2024-01-30T00:45:16;95596.16;;;-2.31;73.91
61870;BME280;47810;42.264;23.826;2024-01-30T00:47:44;95607.25;;;-2.38;74.47
61870;BME280;47810;42.264;23.826;2024-01-30T00:50:17;95596.16;;;-2.31;74.20
61870;BME280;47810;42.264;23.826;2024-01-30T00:53:05;95604.59;;;-2.44;74.55
61870;BME280;47810;42.264;23.826;2024-01-30T00:55:48;95594.94;;;-2.59;75.19
61870;BME280;47810;42.264;23.826;2024-01-30T00:58:26;95588.59;;;-2.81;76.00
61870;BME280;47810;42.264;23.826;2024-01-30T01:00:54;95602.34;;;-2.85;76.25
61870;BME280;47810;42.264;23.826;2024-01-30T01:03:22;95592.91;;;-2.82;76.46
61870;BME280;47810;42.264;23.826;2024-01-30T01:05:50;95595.63;;;-2.71;76.08
61870;BME280;47810;42.264;23.826;2024-01-30T01:08:18;95601.75;;;-2.66;76.15
61870;BME280;47810;42.264;23.826;2024-01-30T01:10:46;95593.81;;;-2.78;76.30
61870;BME280;47810;42.264;23.826;2024-01-30T01:13:20;95598.44;;;-2.54;75.63
61870;BME280;47810;42.264;23.826;2024-01-30T01:15:57;95592.59;;;-2.39;74.46
61870;BME280;47810;42.264;23.826;2024-01-30T01:21:32;95602.84;;;-2.45;75.20
61870;BME280;47810;42.264;23.826;2024-01-30T01:23:59;95604.66;;;-2.38;73.96
61870;BME280;47810;42.264;23.826;2024-01-30T01:26:25;95599.50;;;-2.38;73.74
61870;BME280;47810;42.264;23.826;2024-01-30T01:28:55;95606.41;;;-2.37;74.22
61870;BME280;47810;42.264;23.826;2024-01-30T01:31:24;95596.69;;;-2.55;74.61
61870;BME280;47810;42.264;23.826;2024-01-30T01:33:55;95590.50;;;-2.68;75.02
61870;BME280;47810;42.264;23.826;2024-01-30T01:39:15;95596.13;;;-2.98;76.14
61870;BME280;47810;42.264;23.826;2024-01-30T01:41:44;95595.22;;;-3.01;75.87
61870;BME280;47810;42.264;23.826;2024-01-30T01:44:17;95593.53;;;-2.96;75.38
61870;BME280;47810;42.264;23.826;2024-01-30T01:46:45;95594.31;;;-3.03;76.74
61870;BME280;47810;42.264;23.826;2024-01-30T01:49:11;95598.47;;;-3.12;76.01
61870;BME280;47810;42.264;23.826;2024-01-30T01:51:47;95605.34;;;-3.14;76.38
61870;BME280;47810;42.264;23.826;2024-01-30T01:54:31;95603.56;;;-3.18;76.35
61870;BME280;47810;42.264;23.826;2024-01-30T01:57:00;95606.41;;;-2.99;75.44
61870;BME280;47810;42.264;23.826;2024-01-30T01:59:26;95609.03;;;-2.98;74.77
61870;BME280;47810;42.264;23.826;2024-01-30T02:01:54;95614.13;;;-3.02;74.88
61870;BME280;47810;42.264;23.826;2024-01-30T02:04:26;95608.91;;;-3.06;76.30
61870;BME280;47810;42.264;23.826;2024-01-30T02:06:54;95603.75;;;-3.06;73.83
61870;BME280;47810;42.264;23.826;2024-01-30T02:09:27;95605.31;;;-3.17;73.42
61870;BME280;47810;42.264;23.826;2024-01-30T02:12:05;95602.16;;;-2.97;72.76
61870;BME280;47810;42.264;23.826;2024-01-30T02:14:31;95607.09;;;-3.13;71.57
61870;BME280;47810;42.264;23.826;2024-01-30T02:20:10;95594.41;;;-2.96;71.45
61870;BME280;47810;42.264;23.826;2024-01-30T02:22:59;95598.63;;;-3.02;70.79
61870;BME280;47810;42.264;23.826;2024-01-30T02:26:00;95603.00;;;-2.98;71.35
61870;BME280;47810;42.264;23.826;2024-01-30T02:28:37;95600.44;;;-2.95;72.37
61870;BME280;47810;42.264;23.826;2024-01-30T02:31:03;95596.16;;;-2.95;72.52
61870;BME280;47810;42.264;23.826;2024-01-30T02:33:33;95599.50;;;-3.02;73.05
61870;BME280;47810;42.264;23.826;2024-01-30T02:36:22;95600.44;;;-2.98;71.19
61870;BME280;47810;42.264;23.826;2024-01-30T02:39:17;95601.28;;;-2.98;71.68
61870;BME280;47810;42.264;23.826;2024-01-30T02:41:43;95600.16;;;-3.17;71.87
61870;BME280;47810;42.264;23.826;2024-01-30T02:44:09;95601.19;;;-3.02;71.88
61870;BME280;47810;42.264;23.826;2024-01-30T02:46:40;95599.47;;;-3.03;71.14
61870;BME280;47810;42.264;23.826;2024-01-30T02:49:14;95601.28;;;-2.98;71.76
61870;BME280;47810;42.264;23.826;2024-01-30T02:52:19;95599.44;;;-3.08;72.24
61870;BME280;47810;42.264;23.826;2024-01-30T02:54:58;95601.53;;;-3.37;74.06
61870;BME280;47810;42.264;23.826;2024-01-30T02:57:26;95597.72;;;-3.61;74.70
61870;BME280;47810;42.264;23.826;2024-01-30T02:59:58;95594.53;;;-3.46;74.06
61870;BME280;47810;42.264;23.826;2024-01-30T03:02:56;95594.94;;;-3.20;73.19
61870;BME280;47810;42.264;23.826;2024-01-30T03:05:44;95597.56;;;-3.17;72.88
61870;BME280;47810;42.264;23.826;2024-01-30T03:08:14;95580.44;;;-3.10;71.88
61870;BME280;47810;42.264;23.826;2024-01-30T03:10:42;95595.78;;;-3.19;71.59
61870;BME280;47810;42.264;23.826;2024-01-30T03:13:08;95592.97;;;-3.36;71.09
61870;BME280;47810;42.264;23.826;2024-01-30T03:15:40;95590.56;;;-3.24;70.89
61870;BME280;47810;42.264;23.826;2024-01-30T03:18:06;95596.50;;;-3.28;70.10
61870;BME280;47810;42.264;23.826;2024-01-30T03:20:50;95598.13;;;-3.36;70.42
61870;BME280;47810;42.264;23.826;2024-01-30T03:23:26;95599.88;;;-3.34;71.59
61870;BME280;47810;42.264;23.826;2024-01-30T03:25:57;95598.38;;;-3.18;70.07
61870;BME280;47810;42.264;23.826;2024-01-30T03:28:31;95593.16;;;-3.24;70.36
61870;BME280;47810;42.264;23.826;2024-01-30T03:30:57;95604.41;;;-3.19;69.54
61870;BME280;47810;42.264;23.826;2024-01-30T03:33:33;95593.16;;;-3.24;71.21
61870;BME280;47810;42.264;23.826;2024-01-30T03:36:08;95594.38;;;-3.54;71.57
61870;BME280;47810;42.264;23.826;2024-01-30T03:38:52;95593.88;;;-3.31;71.27
61870;BME280;47810;42.264;23.826;2024-01-30T03:41:43;95598.38;;;-3.18;71.53
61870;BME280;47810;42.264;23.826;2024-01-30T03:44:10;95594.94;;;-3.20;70.79
61870;BME280;47810;42.264;23.826;2024-01-30T03:46:51;95591.69;;;-3.07;71.17
61870;BME280;47810;42.264;23.826;2024-01-30T03:49:26;95596.75;;;-3.13;72.09
61870;BME280;47810;42.264;23.826;2024-01-30T03:51:53;95590.78;;;-3.10;73.19
61870;BME280;47810;42.264;23.826;2024-01-30T03:54:24;95593.16;;;-3.24;73.80
61870;BME280;47810;42.264;23.826;2024-01-30T03:56:56;95592.16;;;-3.34;75.01
61870;BME280;47810;42.264;23.826;2024-01-30T03:59:24;95588.00;;;-3.24;75.44
61870;BME280;47810;42.264;23.826;2024-01-30T04:01:52;95589.75;;;-3.20;75.75
61870;BME280;47810;42.264;23.826;2024-01-30T04:04:29;95595.03;;;-3.12;75.36
61870;BME280;47810;42.264;23.826;2024-01-30T04:07:14;95604.97;;;-3.38;76.63
61870;BME280;47810;42.264;23.826;2024-01-30T04:09:42;95597.81;;;-3.55;76.80
61870;BME280;47810;42.264;23.826;2024-01-30T04:12:17;95600.03;;;-3.23;75.88
61870;BME280;47810;42.264;23.826;2024-01-30T04:14:51;95608.66;;;-3.24;76.11
61870;BME280;47810;42.264;23.826;2024-01-30T04:17:46;95605.97;;;-3.29;76.14
61870;BME280;47810;42.264;23.826;2024-01-30T04:20:15;95608.50;;;-3.33;76.23
61870;BME280;47810;42.264;23.826;2024-01-30T04:22:52;95609.19;;;-3.43;76.02
61870;BME280;47810;42.264;23.826;2024-01-30T04:25:19;95609.72;;;-3.63;77.00
61870;BME280;47810;42.264;23.826;2024-01-30T04:27:45;95614.09;;;-3.59;76.89
61870;BME280;47810;42.264;23.826;2024-01-30T04:30:16;95618.75;;;-3.38;77.27
61870;BME280;47810;42.264;23.826;2024-01-30T04:32:43;95614.53;;;-3.31;76.78
61870;BME280;47810;42.264;23.826;2024-01-30T04:35:11;95619.81;;;-3.25;76.46
61870;BME280;47810;42.264;23.826;2024-01-30T04:37:45;95614.13;;;-3.02;75.59
61870;BME280;47810;42.264;23.826;2024-01-30T04:40:11;95613.97;;;-3.12;73.58
61870;BME280;47810;42.264;23.826;2024-01-30T04:42:40;95612.50;;;-2.97;73.76
61870;BME280;47810;42.264;23.826;2024-01-30T04:45:18;95608.97;;;-3.02;74.63
61870;BME280;47810;42.264;23.826;2024-01-30T04:47:51;95613.88;;;-3.21;73.80
61870;BME280;47810;42.264;23.826;2024-01-30T04:50:24;95620.72;;;-3.23;74.31
61870;BME280;47810;42.264;23.826;2024-01-30T04:52:54;95612.97;;;-3.21;74.28
61870;BME280;47810;42.264;23.826;2024-01-30T04:55:20;95620.97;;;-3.08;73.48
61870;BME280;47810;42.264;23.826;2024-01-30T04:57:47;95621.50;;;-3.27;72.76
61870;BME280;47810;42.264;23.826;2024-01-30T05:00:13;95610.38;;;-3.23;72.90
61870;BME280;47810;42.264;23.826;2024-01-30T05:02:40;95626.22;;;-3.01;73.66
61870;BME280;47810;42.264;23.826;2024-01-30T05:05:10;95615.88;;;-3.01;73.11
61870;BME280;47810;42.264;23.826;2024-01-30T05:07:38;95614.31;;;-2.90;72.50
61870;BME280;47810;42.264;23.826;2024-01-30T05:10:06;95626.50;;;-2.80;72.65
61870;BME280;47810;42.264;23.826;2024-01-30T05:12:40;95626.56;;;-2.77;72.15
61870;BME280;47810;42.264;23.826;2024-01-30T05:15:08;95624.69;;;-2.87;73.37
61870;BME280;47810;42.264;23.826;2024-01-30T05:17:34;95618.38;;;-3.06;73.92
61870;BME280;47810;42.264;23.826;2024-01-30T05:20:01;95632.19;;;-3.04;74.67
61870;BME280;47810;42.264;23.826;2024-01-30T05:22:29;95625.13;;;-3.17;75.43
61870;BME280;47810;42.264;23.826;2024-01-30T05:24:54;95619.84;;;-3.23;75.73
61870;BME280;47810;42.264;23.826;2024-01-30T05:27:20;95620.72;;;-3.21;74.81
61870;BME280;47810;42.264;23.826;2024-01-30T05:29:47;95632.72;;;-3.25;74.71
61870;BME280;47810;42.264;23.826;2024-01-30T05:32:14;95624.88;;;-3.31;75.49
61870;BME280;47810;42.264;23.826;2024-01-30T05:34:40;95635.19;;;-3.31;75.64
61870;BME280;47810;42.264;23.826;2024-01-30T05:37:09;95641.28;;;-3.29;75.82
61870;BME280;47810;42.264;23.826;2024-01-30T05:39:47;95640.41;;;-3.30;75.86
61870;BME280;47810;42.264;23.826;2024-01-30T05:42:21;95637.84;;;-3.28;76.14
61870;BME280;47810;42.264;23.826;2024-01-30T05:44:48;95637.56;;;-3.46;75.51
61870;BME280;47810;42.264;23.826;2024-01-30T05:47:19;95639.00;;;-3.61;76.05
61870;BME280;47810;42.264;23.826;2024-01-30T05:49:45;95647.09;;;-3.89;77.17
61870;BME280;47810;42.264;23.826;2024-01-30T05:52:11;95644.19;;;-4.06;77.81
61870;BME280;47810;42.264;23.826;2024-01-30T05:54:59;95648.66;;;-3.97;76.86
61870;BME280;47810;42.264;23.826;2024-01-30T05:57:27;95638.28;;;-4.01;77.32
61870;BME280;47810;42.264;23.826;2024-01-30T05:59:55;95637.63;;;-3.90;74.70
61870;BME280;47810;42.264;23.826;2024-01-30T06:02:23;95631.72;;;-3.83;71.06
61870;BME280;47810;42.264;23.826;2024-01-30T06:04:57;95635.97;;;-3.85;69.99
61870;BME280;47810;42.264;23.826;2024-01-30T06:07:23;95637.91;;;-3.75;67.42
61870;BME280;47810;42.264;23.826;2024-01-30T06:09:52;95643.94;;;-3.73;67.77
61870;BME280;47810;42.264;23.826;2024-01-30T06:15:23;95638.06;;;-3.66;67.38
61870;BME280;47810;42.264;23.826;2024-01-30T06:17:54;95641.41;;;-3.70;68.14
61870;BME280;47810;42.264;23.826;2024-01-30T06:20:23;95640.38;;;-3.81;69.36
61870;BME280;47810;42.264;23.826;2024-01-30T06:23:03;95640.72;;;-3.60;67.86
61870;BME280;47810;42.264;23.826;2024-01-30T06:25:52;95657.22;;;-3.53;70.54
61870;BME280;47810;42.264;23.826;2024-01-30T06:28:24;95647.88;;;-3.45;71.98
61870;BME280;47810;42.264;23.826;2024-01-30T06:30:52;95648.75;;;-3.46;72.70
61870;BME280;47810;42.264;23.826;2024-01-30T06:33:28;95649.72;;;-3.39;72.39
61870;BME280;47810;42.264;23.826;2024-01-30T06:35:56;95652.16;;;-3.47;72.46
61870;BME280;47810;42.264;23.826;2024-01-30T06:38:22;95656.56;;;-3.41;71.23
61870;BME280;47810;42.264;23.826;2024-01-30T06:40:51;95651.59;;;-3.29;74.26
61870;BME280;47810;42.264;23.826;2024-01-30T06:43:22;95655.75;;;-3.37;74.47
61870;BME280;47810;42.264;23.826;2024-01-30T06:45:49;95647.78;;;-3.51;74.94
61870;BME280;47810;42.264;23.826;2024-01-30T06:48:22;95659.88;;;-3.48;75.73
61870;BME280;47810;42.264;23.826;2024-01-30T06:50:54;95662.53;;;-3.44;74.54
61870;BME280;47810;42.264;23.826;2024-01-30T06:53:25;95662.78;;;-3.29;72.29
61870;BME280;47810;42.264;23.826;2024-01-30T06:55:56;95667.19;;;-3.23;70.89
61870;BME280;47810;42.264;23.826;2024-01-30T06:58:21;95670.00;;;-3.11;71.72
61870;BME280;47810;42.264;23.826;2024-01-30T07:00:47;95672.56;;;-3.11;70.13
61870;BME280;47810;42.264;23.826;2024-01-30T07:03:14;95670.28;;;-2.91;69.71
61870;BME280;47810;42.264;23.826;2024-01-30T07:05:40;95664.13;;;-3.00;70.12
61870;BME280;47810;42.264;23.826;2024-01-30T07:08:26;95665.19;;;-2.86;72.26
61870;BME280;47810;42.264;23.826;2024-01-30T07:10:53;95659.66;;;-3.09;74.33
61870;BME280;47810;42.264;23.826;2024-01-30T07:13:20;95674.41;;;-3.02;74.18
61870;BME280;47810;42.264;23.826;2024-01-30T07:16:03;95668.56;;;-2.90;73.50
61870;BME280;47810;42.264;23.826;2024-01-30T07:18:29;95669.44;;;-2.91;74.21
61870;BME280;47810;42.264;23.826;2024-01-30T07:20:58;95666.13;;;-2.81;71.59
61870;BME280;47810;42.264;23.826;2024-01-30T07:23:25;95659.34;;;-2.73;71.88
61870;BME280;47810;42.264;23.826;2024-01-30T07:26:05;95666.38;;;-2.66;71.98
61870;BME280;47810;42.264;23.826;2024-01-30T07:28:34;95661.28;;;-2.60;71.39
61870;BME280;47810;42.264;23.826;2024-01-30T07:31:05;95658.78;;;-2.53;71.38
61870;BME280;47810;42.264;23.826;2024-01-30T07:33:47;95659.44;;;-2.67;70.31
61870;BME280;47810;42.264;23.826;2024-01-30T07:36:14;95656.34;;;-2.41;71.76
61870;BME280;47810;42.264;23.826;2024-01-30T07:38:43;95658.06;;;-2.43;73.88
61870;BME280;47810;42.264;23.826;2024-01-30T07:41:09;95659.84;;;-2.39;74.24
61870;BME280;47810;42.264;23.826;2024-01-30T07:43:35;95649.53;;;-2.36;74.01
61870;BME280;47810;42.264;23.826;2024-01-30T07:46:01;95656.50;;;-2.29;72.94
61870;BME280;47810;42.264;23.826;2024-01-30T07:48:38;95658.31;;;-2.22;73.02
61870;BME280;47810;42.264;23.826;2024-01-30T07:51:04;95660.13;;;-2.18;72.87
61870;BME280;47810;42.264;23.826;2024-01-30T07:53:30;95660.00;;;-2.27;72.81
61870;BME280;47810;42.264;23.826;2024-01-30T07:56:05;95661.69;;;-2.29;73.82
61870;BME280;47810;42.264;23.826;2024-01-30T07:58:32;95659.88;;;-2.36;74.26
61870;BME280;47810;42.264;23.826;2024-01-30T08:00:58;95659.34;;;-2.11;71.62
61870;BME280;47810;42.264;23.826;2024-01-30T08:03:27;95671.63;;;-1.93;71.75
61870;BME280;47810;42.264;23.826;2024-01-30T08:06:14;95668.28;;;-1.85;70.92
61870;BME280;47810;42.264;23.826;2024-01-30T08:08:44;95659.72;;;-1.78;70.79
61870;BME280;47810;42.264;23.826;2024-01-30T08:11:14;95663.22;;;-1.70;70.62
61870;BME280;47810;42.264;23.826;2024-01-30T08:13:43;95661.50;;;-1.73;70.81
61870;BME280;47810;42.264;23.826;2024-01-30T08:16:19;95665.25;;;-1.43;70.62
61870;BME280;47810;42.264;23.826;2024-01-30T08:18:46;95648.88;;;-1.39;69.29
61870;BME280;47810;42.264;23.826;2024-01-30T08:21:16;95662.91;;;-1.19;66.38
61870;BME280;47810;42.264;23.826;2024-01-30T08:27:27;95665.59;;;-1.08;64.45
61870;BME280;47810;42.264;23.826;2024-01-30T08:29:55;95660.44;;;-1.00;62.22
61870;BME280;47810;42.264;23.826;2024-01-30T08:32:39;95644.03;;;-1.02;61.77
61870;BME280;47810;42.264;23.826;2024-01-30T08:35:10;95664.81;;;-0.96;62.66
61870;BME280;47810;42.264;23.826;2024-01-30T08:37:50;95663.97;;;-0.95;61.50
61870;BME280;47810;42.264;23.826;2024-01-30T08:40:34;95659.66;;;-0.90;63.01
61870;BME280;47810;42.264;23.826;2024-01-30T08:43:01;95665.91;;;-0.66;62.54
61870;BME280;47810;42.264;23.826;2024-01-30T08:45:30;95664.28;;;-0.49;60.93
61870;BME280;47810;42.264;23.826;2024-01-30T08:47:56;95662.59;;;-0.39;61.03
61870;BME280;47810;42.264;23.826;2024-01-30T08:50:22;95660.09;;;-0.26;59.31
61870;BME280;47810;42.264;23.826;2024-01-30T08:53:06;95667.97;;;-0.07;59.22
61870;BME280;47810;42.264;23.826;2024-01-30T08:55:59;95673.22;;;0.08;58.82
61870;BME280;47810;42.264;23.826;2024-01-30T08:58:42;95669.00;;;0.35;58.04
61870;BME280;47810;42.264;23.826;2024-01-30T09:01:07;95666.44;;;0.53;56.72
61870;BME280;47810;42.264;23.826;2024-01-30T09:03:34;95663.88;;;0.62;56.98
61870;BME280;47810;42.264;23.826;2024-01-30T09:06:14;95669.13;;;0.84;56.34
61870;BME280;47810;42.264;23.826;2024-01-30T09:08:46;95656.13;;;0.95;54.54
61870;BME280;47810;42.264;23.826;2024-01-30T09:11:18;95660.47;;;1.06;55.03
61870;BME280;47810;42.264;23.826;2024-01-30T09:13:51;95665.66;;;1.15;54.17
61870;BME280;47810;42.264;23.826;2024-01-30T09:16:40;95659.59;;;1.26;53.26
61870;BME280;47810;42.264;23.826;2024-01-30T09:19:07;95656.97;;;1.55;51.62
61870;BME280;47810;42.264;23.826;2024-01-30T09:21:52;95663.81;;;1.88;50.61
61870;BME280;47810;42.264;23.826;2024-01-30T09:24:36;95653.28;;;2.26;49.57
61870;BME280;47810;42.264;23.826;2024-01-30T09:27:06;95641.00;;;2.51;48.80
61870;BME280;47810;42.264;23.826;2024-01-30T09:29:56;95649.66;;;2.50;50.20
61870;BME280;47810;42.264;23.826;2024-01-30T09:32:29;95639.47;;;2.06;49.94
61870;BME280;47810;42.264;23.826;2024-01-30T09:35:20;95635.00;;;2.36;52.56
61870;BME280;47810;42.264;23.826;2024-01-30T09:41:03;95634.53;;;3.09;47.79
61870;BME280;47810;42.264;23.826;2024-01-30T09:43:54;95630.84;;;3.30;47.51
61870;BME280;47810;42.264;23.826;2024-01-30T09:59:36;95600.97;;;3.62;46.81
61870;BME280;47810;42.264;23.826;2024-01-30T10:06:09;95589.03;;;4.15;44.19
61870;BME280;47810;42.264;23.826;2024-01-30T10:08:48;95593.88;;;3.71;45.31
61870;BME280;47810;42.264;23.826;2024-01-30T10:11:21;95585.94;;;3.82;45.74
61870;BME280;47810;42.264;23.826;2024-01-30T10:13:54;95580.94;;;4.35;44.87
61870;BME280;47810;42.264;23.826;2024-01-30T10:16:39;95589.06;;;4.12;45.00
61870;BME280;47810;42.264;23.826;2024-01-30T10:19:14;95577.09;;;4.60;44.72
61870;BME280;47810;42.264;23.826;2024-01-30T10:27:46;95572.03;;;3.80;44.53
61870;BME280;47810;42.264;23.826;2024-01-30T10:30:24;95571.94;;;3.89;46.13
61870;BME280;47810;42.264;23.826;2024-01-30T10:36:21;95574.69;;;4.47;45.08
61870;BME280;47810;42.264;23.826;2024-01-30T10:38:59;95561.50;;;5.07;44.61
61870;BME280;47810;42.264;23.826;2024-01-30T10:41:31;95562.56;;;4.97;42.14
61870;BME280;47810;42.264;23.826;2024-01-30T10:44:36;95574.38;;;5.70;41.46
61870;BME280;47810;42.264;23.826;2024-01-30T10:47:10;95572.53;;;5.27;41.45
61870;BME280;47810;42.264;23.826;2024-01-30T10:49:44;95569.72;;;4.85;42.99
61870;BME280;47810;42.264;23.826;2024-01-30T10:52:17;95561.63;;;5.01;42.92
61870;BME280;47810;42.264;23.826;2024-01-30T10:58:17;95562.28;;;6.50;42.12
61870;BME280;47810;42.264;23.826;2024-01-30T11:00:44;95573.88;;;5.98;40.40
61870;BME280;47810;42.264;23.826;2024-01-30T11:07:32;95564.19;;;6.42;38.61
61870;BME280;47810;42.264;23.826;2024-01-30T11:13:51;95560.75;;;6.40;40.00
61870;BME280;47810;42.264;23.826;2024-01-30T11:16:20;95563.88;;;6.17;39.85
61870;BME280;47810;42.264;23.826;2024-01-30T11:18:50;95550.91;;;6.09;39.40
61870;BME280;47810;42.264;23.826;2024-01-30T11:25:11;95551.44;;;6.65;38.84
61870;BME280;47810;42.264;23.826;2024-01-30T11:27:39;95540.31;;;6.54;39.67
61870;BME280;47810;42.264;23.826;2024-01-30T11:37:09;95529.94;;;6.87;38.39
61870;BME280;47810;42.264;23.826;2024-01-30T11:39:39;95523.75;;;6.52;41.33
61870;BME280;47810;42.264;23.826;2024-01-30T11:52:15;95511.66;;;6.45;40.74
61870;BME280;47810;42.264;23.826;2024-01-30T11:54:43;95506.97;;;6.20;39.78
61870;BME280;47810;42.264;23.826;2024-01-30T12:01:05;95494.28;;;7.12;40.62
61870;BME280;47810;42.264;23.826;2024-01-30T12:07:20;95496.66;;;7.23;37.18
61870;BME280;47810;42.264;23.826;2024-01-30T12:09:56;95492.41;;;7.17;37.37
61870;BME280;47810;42.264;23.826;2024-01-30T12:12:56;95493.72;;;7.34;38.62
61870;BME280;47810;42.264;23.826;2024-01-30T12:22:10;95463.00;;;7.68;38.06
61870;BME280;47810;42.264;23.826;2024-01-30T12:25:13;95463.63;;;7.77;39.46
61870;BME280;47810;42.264;23.826;2024-01-30T12:27:43;95462.91;;;8.31;37.48
61870;BME280;47810;42.264;23.826;2024-01-30T12:30:27;95458.06;;;8.17;36.38
61870;BME280;47810;42.264;23.826;2024-01-30T12:39:35;95470.91;;;7.36;38.52
61870;BME280;47810;42.264;23.826;2024-01-30T12:42:26;95462.88;;;7.42;39.74
61870;BME280;47810;42.264;23.826;2024-01-30T12:44:53;95452.06;;;7.84;38.56
61870;BME280;47810;42.264;23.826;2024-01-30T12:47:23;95454.44;;;7.91;37.27
61870;BME280;47810;42.264;23.826;2024-01-30T12:50:01;95456.72;;;7.41;38.37
61870;BME280;47810;42.264;23.826;2024-01-30T12:52:27;95455.47;;;7.86;39.62
61870;BME280;47810;42.264;23.826;2024-01-30T12:54:54;95451.31;;;7.79;38.19
61870;BME280;47810;42.264;23.826;2024-01-30T12:57:39;95445.97;;;8.11;37.87
61870;BME280;47810;42.264;23.826;2024-01-30T13:00:05;95447.47;;;7.90;37.80
61870;BME280;47810;42.264;23.826;2024-01-30T13:02:50;95447.56;;;7.87;38.96
61870;BME280;47810;42.264;23.826;2024-01-30T13:05:20;95438.25;;;7.76;40.16
61870;BME280;47810;42.264;23.826;2024-01-30T13:11:02;95443.00;;;6.63;40.35
61870;BME280;47810;42.264;23.826;2024-01-30T13:13:53;95433.38;;;6.98;40.04
61870;BME280;47810;42.264;23.826;2024-01-30T13:19:26;95433.66;;;6.53;41.25
61870;BME280;47810;42.264;23.826;2024-01-30T13:22:12;95435.69;;;6.78;42.18
61870;BME280;47810;42.264;23.826;2024-01-30T13:24:57;95438.69;;;6.61;40.72
61870;BME280;47810;42.264;23.826;2024-01-30T13:27:25;95426.53;;;6.58;40.12
61870;BME280;47810;42.264;23.826;2024-01-30T13:39:43;95419.59;;;6.18;42.34
61870;BME280;47810;42.264;23.826;2024-01-30T13:42:13;95421.50;;;6.13;44.39
61870;BME280;47810;42.264;23.826;2024-01-30T13:45:02;95412.66;;;6.53;43.02
61870;BME280;47810;42.264;23.826;2024-01-30T13:47:49;95418.97;;;6.44;41.52
61870;BME280;47810;42.264;23.826;2024-01-30T13:50:23;95416.13;;;6.16;41.49
61870;BME280;47810;42.264;23.826;2024-01-30T13:53:04;95419.09;;;5.62;41.71
61870;BME280;47810;42.264;23.826;2024-01-30T13:58:52;95420.72;;;4.76;43.68
61870;BME280;47810;42.264;23.826;2024-01-30T14:01:34;95422.81;;;5.05;44.55
61870;BME280;47810;42.264;23.826;2024-01-30T14:07:37;95424.75;;;5.41;43.64
61870;BME280;47810;42.264;23.826;2024-01-30T14:10:06;95423.50;;;5.15;43.91
61870;BME280;47810;42.264;23.826;2024-01-30T14:12:34;95438.16;;;4.77;44.12
61870;BME280;47810;42.264;23.826;2024-01-30T14:15:03;95436.69;;;4.61;45.49
61870;BME280;47810;42.264;23.826;2024-01-30T14:17:29;95434.63;;;4.78;44.48
61870;BME280;47810;42.264;23.826;2024-01-30T14:23:02;95442.16;;;4.46;45.39
61870;BME280;47810;42.264;23.826;2024-01-30T14:25:40;95442.22;;;4.42;45.77
61870;BME280;47810;42.264;23.826;2024-01-30T14:28:16;95447.47;;;3.84;46.71
61870;BME280;47810;42.264;23.826;2024-01-30T14:30:46;95450.75;;;3.32;48.63
61870;BME280;47810;42.264;23.826;2024-01-30T14:33:21;95453.03;;;3.56;49.33
61870;BME280;47810;42.264;23.826;2024-01-30T14:38:41;95445.13;;;3.64;48.22
61870;BME280;47810;42.264;23.826;2024-01-30T14:41:13;95452.22;;;3.53;50.18
61870;BME280;47810;42.264;23.826;2024-01-30T14:43:53;95447.63;;;2.97;48.63
61870;BME280;47810;42.264;23.826;2024-01-30T14:46:36;95447.28;;;2.40;50.51
61870;BME280;47810;42.264;23.826;2024-01-30T14:49:12;95450.34;;;1.77;53.62
61870;BME280;47810;42.264;23.826;2024-01-30T14:54:19;95453.56;;;2.15;52.49
61870;BME280;47810;42.264;23.826;2024-01-30T14:56:57;95446.66;;;2.10;52.32
61870;BME280;47810;42.264;23.826;2024-01-30T14:59:35;95445.91;;;1.92;53.28
61870;BME280;47810;42.264;23.826;2024-01-30T15:02:00;95453.13;;;1.45;54.66
61870;BME280;47810;42.264;23.826;2024-01-30T15:04:36;95443.47;;;1.62;55.07
61870;BME280;47810;42.264;23.826;2024-01-30T15:07:07;95441.84;;;1.46;55.36
61870;BME280;47810;42.264;23.826;2024-01-30T15:09:40;95447.09;;;1.28;56.56
61870;BME280;47810;42.264;23.826;2024-01-30T15:12:15;95440.19;;;1.24;56.69
61870;BME280;47810;42.264;23.826;2024-01-30T15:14:47;95448.84;;;1.32;56.93
61870;BME280;47810;42.264;23.826;2024-01-30T15:17:19;95440.16;;;1.30;56.09
61870;BME280;47810;42.264;23.826;2024-01-30T15:19:52;95456.56;;;1.50;55.57
61870;BME280;47810;42.264;23.826;2024-01-30T15:22:18;95447.13;;;1.19;57.63
61870;BME280;47810;42.264;23.826;2024-01-30T15:24:53;95437.66;;;1.04;58.01
61870;BME280;47810;42.264;23.826;2024-01-30T15:27:19;95452.25;;;1.46;58.05
61870;BME280;47810;42.264;23.826;2024-01-30T15:29:45;95456.66;;;1.24;57.86
61870;BME280;47810;42.264;23.826;2024-01-30T15:32:12;95464.53;;;1.07;58.84
61870;BME280;47810;42.264;23.826;2024-01-30T15:34:47;95462.03;;;0.67;59.19
61870;BME280;47810;42.264;23.826;2024-01-30T15:37:12;95464.66;;;0.46;60.15
61870;BME280;47810;42.264;23.826;2024-01-30T15:39:38;95474.13;;;0.70;60.57
61870;BME280;47810;42.264;23.826;2024-01-30T15:45:03;95473.28;;;0.60;60.25
61870;BME280;47810;42.264;23.826;2024-01-30T15:50:32;95481.88;;;0.96;60.28
61870;BME280;47810;42.264;23.826;2024-01-30T15:53:01;95492.34;;;0.72;60.08